createdAt,value
2023-02-27T00:02:28.616Z,2.00
2023-02-27T00:04:58.293Z,2.50
2023-02-27T00:07:29.051Z,1.70
2023-02-27T00:09:57.512Z,1.30
2023-02-27T00:12:26.019Z,1.70
2023-02-27T00:14:54.511Z,2.10
2023-02-27T00:17:26.041Z,2.00
2023-02-27T00:19:54.618Z,1.70
2023-02-27T00:22:23.105Z,4.40
2023-02-27T00:24:51.713Z,4.50
2023-02-27T00:27:20.225Z,2.50
2023-02-27T00:29:48.812Z,2.70
2023-02-27T00:32:17.456Z,3.80
2023-02-27T00:34:48.960Z,3.50
2023-02-27T00:39:46.104Z,2.80
2023-02-27T00:44:43.493Z,2.80
2023-02-27T00:49:41.321Z,3.00
2023-02-27T00:54:38.634Z,2.20
2023-02-27T00:57:07.428Z,4.60
2023-02-27T01:02:04.233Z,2.70
2023-02-27T01:04:32.779Z,3.00
2023-02-27T01:07:01.265Z,2.70
2023-02-27T01:09:29.799Z,2.50
2023-02-27T01:11:58.502Z,2.50
2023-02-27T01:14:27.124Z,2.40
2023-02-27T01:16:55.683Z,1.90
2023-02-27T01:19:25.404Z,2.30
2023-02-27T01:21:54.046Z,2.30
2023-02-27T01:26:52.866Z,1.60
2023-02-27T01:29:21.441Z,1.90
2023-02-27T01:31:50.551Z,2.40
2023-02-27T01:34:19.113Z,2.00
2023-02-27T01:36:47.601Z,1.70
2023-02-27T01:39:17.706Z,1.50
2023-02-27T01:41:46.691Z,1.50
2023-02-27T01:46:44.382Z,1.00
2023-02-27T01:49:24.320Z,1.60
2023-02-27T01:52:02.121Z,1.90
2023-02-27T01:54:35.409Z,4.30
2023-02-27T01:57:07.599Z,2.00
2023-02-27T01:59:39.845Z,1.20
2023-02-27T02:02:23.874Z,0.80
2023-02-27T02:04:55.261Z,1.60
2023-02-27T02:07:25.585Z,1.60
2023-02-27T02:09:57.347Z,1.00
2023-02-27T02:12:30.263Z,2.00
2023-02-27T02:14:58.780Z,2.20
2023-02-27T02:17:45.754Z,1.40
2023-02-27T02:20:45.824Z,1.50
2023-02-27T02:23:24.954Z,1.10
2023-02-27T02:26:12.155Z,1.00
2023-02-27T02:29:01.221Z,0.90
2023-02-27T02:31:32.787Z,1.10
2023-02-27T02:34:08.473Z,3.90
2023-02-27T02:36:58.306Z,1.60
2023-02-27T02:39:32.885Z,1.50
2023-02-27T02:42:04.421Z,2.70
2023-02-27T02:44:39.256Z,2.70
2023-02-27T02:47:17.015Z,2.70
2023-02-27T02:53:00.858Z,4.20
2023-02-27T02:55:42.665Z,3.20
2023-02-27T02:58:22.723Z,5.60
2023-02-27T03:01:22.856Z,3.00
2023-02-27T03:04:04.963Z,2.40
2023-02-27T03:06:38.991Z,1.30
2023-02-27T03:09:17.287Z,0.90
2023-02-27T03:11:49.161Z,0.90
2023-02-27T03:14:43.297Z,0.80
2023-02-27T03:17:19.721Z,2.50
2023-02-27T03:20:04.011Z,3.70
2023-02-27T03:22:38.412Z,3.20
2023-02-27T03:25:11.213Z,4.00
2023-02-27T03:27:54.122Z,4.40
2023-02-27T03:30:35.516Z,3.40
2023-02-27T03:33:27.994Z,10.00
2023-02-27T03:36:05.700Z,9.50
2023-02-27T03:38:42.239Z,6.50
2023-02-27T03:41:26.507Z,7.00
2023-02-27T03:44:14.460Z,5.80
2023-02-27T03:46:43.091Z,4.50
2023-02-27T03:49:11.844Z,5.40
2023-02-27T03:51:40.560Z,11.00
2023-02-27T03:54:11.747Z,13.40
2023-02-27T03:57:03.970Z,10.50
2023-02-27T03:59:34.137Z,3.50
2023-02-27T04:02:04.077Z,3.10
2023-02-27T04:04:34.000Z,2.70
2023-02-27T04:07:33.906Z,2.20
2023-02-27T04:10:11.806Z,2.30
2023-02-27T04:13:08.453Z,2.70
2023-02-27T04:16:19.456Z,1.70
2023-02-27T04:19:10.372Z,4.60
2023-02-27T04:21:57.441Z,2.20
2023-02-27T04:24:31.828Z,2.70
2023-02-27T04:27:18.789Z,3.60
2023-02-27T04:30:16.997Z,3.60
2023-02-27T04:33:00.554Z,3.10
2023-02-27T04:35:40.070Z,2.00
2023-02-27T04:38:28.883Z,1.60
2023-02-27T04:43:36.116Z,1.40
2023-02-27T04:46:07.307Z,2.00
2023-02-27T04:48:48.327Z,3.60
2023-02-27T04:51:22.121Z,2.90
2023-02-27T04:54:00.788Z,3.80
2023-02-27T04:56:35.033Z,3.90
2023-02-27T04:59:27.554Z,3.80
2023-02-27T05:02:00.177Z,3.30
2023-02-27T05:04:33.376Z,4.40
2023-02-27T05:07:03.493Z,4.60
2023-02-27T05:09:51.597Z,3.00
2023-02-27T05:12:27.306Z,4.90
2023-02-27T05:15:13.684Z,3.60
2023-02-27T05:17:47.260Z,2.50
2023-02-27T05:20:17.674Z,2.70
2023-02-27T05:23:00.055Z,3.80
2023-02-27T05:25:49.928Z,5.10
2023-02-27T05:28:38.260Z,4.90
2023-02-27T05:31:23.510Z,2.80
2023-02-27T05:34:04.365Z,2.80
2023-02-27T05:36:46.335Z,4.50
2023-02-27T05:39:19.652Z,5.40
2023-02-27T05:41:56.932Z,7.50
2023-02-27T05:44:35.597Z,10.20
2023-02-27T05:47:13.151Z,6.10
2023-02-27T05:49:44.190Z,10.50
2023-02-27T05:52:17.706Z,6.80
2023-02-27T05:54:57.196Z,5.80
2023-02-27T05:58:04.985Z,4.50
2023-02-27T06:00:38.920Z,4.80
2023-02-27T06:03:07.773Z,6.00
2023-02-27T06:05:39.967Z,6.90
2023-02-27T06:08:08.601Z,7.40
2023-02-27T06:10:38.393Z,6.20
2023-02-27T06:13:07.057Z,9.20
2023-02-27T06:15:35.832Z,9.80
2023-02-27T06:18:04.931Z,11.20
2023-02-27T06:35:25.742Z,8.50
2023-02-27T06:37:54.315Z,8.90
2023-02-27T06:42:52.307Z,9.80
2023-02-27T06:47:49.983Z,10.70
2023-02-27T06:50:18.872Z,10.10
2023-02-27T06:55:20.528Z,19.70
2023-02-27T06:57:49.958Z,14.80
2023-02-27T07:00:19.151Z,12.80
2023-02-27T07:02:47.664Z,11.50
2023-02-27T07:05:16.304Z,14.80
2023-02-27T07:07:44.792Z,14.90
2023-02-27T07:10:14.541Z,12.30
2023-02-27T07:12:42.621Z,9.70
2023-02-27T07:15:11.506Z,7.00
2023-02-27T07:20:10.766Z,7.40
2023-02-27T07:22:40.335Z,11.60
2023-02-27T07:25:09.565Z,7.40
2023-02-27T07:27:37.720Z,10.10
2023-02-27T07:30:06.535Z,7.30
2023-02-27T07:32:34.664Z,11.20
2023-02-27T07:35:04.041Z,9.20
2023-02-27T07:37:32.349Z,7.30
2023-02-27T07:40:00.428Z,9.30
2023-02-27T07:42:28.821Z,7.30
2023-02-27T07:44:56.901Z,8.00
2023-02-27T07:47:25.320Z,9.70
2023-02-27T07:49:53.652Z,11.40
2023-02-27T07:52:21.832Z,13.30
2023-02-27T07:54:50.138Z,26.50
2023-02-27T07:57:18.664Z,11.00
2023-02-27T07:59:48.470Z,6.30
2023-02-27T08:02:16.729Z,10.20
2023-02-27T08:04:45.870Z,11.20
2023-02-27T08:07:14.047Z,16.30
2023-02-27T08:09:42.109Z,19.00
2023-02-27T08:12:10.203Z,15.80
2023-02-27T08:14:39.036Z,21.90
2023-02-27T08:17:08.269Z,16.30
2023-02-27T08:19:36.497Z,10.20
2023-02-27T08:22:04.675Z,11.40
2023-02-27T08:24:32.713Z,7.40
2023-02-27T08:27:00.956Z,7.10
2023-02-27T08:29:31.061Z,4.00
2023-02-27T08:32:00.457Z,4.00
2023-02-27T08:34:30.313Z,5.30
2023-02-27T08:36:59.277Z,4.30
2023-02-27T08:41:55.579Z,4.40
2023-02-27T08:44:23.746Z,5.70
2023-02-27T08:46:52.573Z,5.20
2023-02-27T08:51:52.117Z,5.60
2023-02-27T08:54:20.878Z,3.60
2023-02-27T08:59:17.237Z,8.10
2023-02-27T09:01:45.348Z,9.40
2023-02-27T09:04:13.635Z,6.60
2023-02-27T09:06:41.856Z,5.80
2023-02-27T09:09:10.463Z,6.90
2023-02-27T09:11:38.971Z,3.70
2023-02-27T09:14:07.990Z,5.70
2023-02-27T09:19:04.861Z,1.70
2023-02-27T09:24:17.137Z,3.00
2023-02-27T09:26:48.016Z,4.00
2023-02-27T09:29:16.627Z,2.50
2023-02-27T09:31:45.019Z,3.20
2023-02-27T09:34:13.333Z,2.30
2023-02-27T09:36:41.621Z,2.00
2023-02-27T09:39:10.779Z,2.10
2023-02-27T09:41:42.234Z,3.50
2023-02-27T09:44:39.756Z,4.80
2023-02-27T09:47:26.596Z,3.30
2023-02-27T09:50:08.059Z,4.90
2023-02-27T09:52:37.825Z,1.80
2023-02-27T09:55:15.423Z,4.40
2023-02-27T09:57:49.734Z,4.10
2023-02-27T10:00:38.423Z,7.40
2023-02-27T10:03:33.883Z,7.40
2023-02-27T10:06:26.650Z,3.70
2023-02-27T10:09:01.135Z,7.00
2023-02-27T10:11:43.593Z,4.90
2023-02-27T10:14:42.980Z,4.70
2023-02-27T10:17:22.630Z,5.50
2023-02-27T10:19:52.939Z,6.70
2023-02-27T10:22:33.926Z,4.20
2023-02-27T10:25:30.222Z,6.50
2023-02-27T10:28:11.248Z,39.00
2023-02-27T10:30:39.984Z,43.60
2023-02-27T10:35:56.882Z,6.90
2023-02-27T10:39:00.286Z,7.00
2023-02-27T10:41:29.673Z,4.20
2023-02-27T10:44:00.202Z,1.80
2023-02-27T10:46:31.656Z,4.90
2023-02-27T10:49:01.905Z,4.20
2023-02-27T10:51:35.100Z,5.90
2023-02-27T10:54:23.820Z,3.40
2023-02-27T10:56:55.874Z,4.10
2023-02-27T10:59:37.521Z,2.90
2023-02-27T11:02:20.960Z,3.30
2023-02-27T11:04:56.666Z,3.00
2023-02-27T11:07:39.309Z,5.50
2023-02-27T11:10:13.530Z,5.30
2023-02-27T11:12:57.572Z,5.90
2023-02-27T11:15:30.178Z,3.30
2023-02-27T11:18:29.433Z,3.90
2023-02-27T11:21:29.145Z,4.00
2023-02-27T11:24:19.299Z,18.10
2023-02-27T11:27:05.464Z,7.30
2023-02-27T11:29:34.989Z,3.90
2023-02-27T11:32:22.131Z,14.20
2023-02-27T11:34:52.485Z,3.50
2023-02-27T11:37:37.121Z,5.00
2023-02-27T11:40:13.016Z,3.70
2023-02-27T11:42:51.213Z,6.70
2023-02-27T11:46:13.251Z,9.60
2023-02-27T11:48:23.673Z,6.80
2023-02-27T11:50:58.082Z,4.30
2023-02-27T11:53:44.811Z,21.00
2023-02-27T11:56:24.193Z,141.30
2023-02-27T11:59:04.528Z,125.00
2023-02-27T12:01:43.824Z,28.20
2023-02-27T12:04:24.228Z,23.60
2023-02-27T12:07:00.210Z,7.00
2023-02-27T12:09:43.120Z,6.50
2023-02-27T12:12:26.727Z,9.20
2023-02-27T12:15:05.540Z,7.30
2023-02-27T12:18:20.479Z,8.10
2023-02-27T12:20:55.759Z,5.60
2023-02-27T12:23:41.532Z,7.00
2023-02-27T12:26:31.923Z,5.20
2023-02-27T12:29:31.221Z,6.20
2023-02-27T12:32:10.377Z,13.40
2023-02-27T12:34:52.156Z,3.90
2023-02-27T12:37:25.093Z,11.30
2023-02-27T12:39:58.336Z,9.30
2023-02-27T12:42:36.246Z,7.20
2023-02-27T12:45:26.880Z,7.20
2023-02-27T12:48:09.908Z,11.70
2023-02-27T12:51:20.264Z,16.50
2023-02-27T12:54:13.025Z,21.80
2023-02-27T12:57:07.458Z,32.50
2023-02-27T13:00:06.781Z,55.30
2023-02-27T13:02:45.976Z,63.50
2023-02-27T13:05:24.984Z,18.00
2023-02-27T13:08:04.006Z,52.50
2023-02-27T13:10:40.781Z,11.90
2023-02-27T13:13:37.789Z,7.50
2023-02-27T13:16:33.524Z,8.50
2023-02-27T13:19:27.096Z,11.60
2023-02-27T13:22:16.189Z,9.80
2023-02-27T13:24:51.022Z,8.00
2023-02-27T13:27:25.335Z,14.00
2023-02-27T13:30:14.379Z,12.70
2023-02-27T13:32:54.576Z,12.80
2023-02-27T13:35:39.292Z,9.10
2023-02-27T13:38:29.547Z,10.80
2023-02-27T13:40:57.958Z,8.10
2023-02-27T13:43:43.317Z,7.00
2023-02-27T13:46:25.386Z,11.30
2023-02-27T13:48:54.827Z,15.00
2023-02-27T13:51:34.979Z,17.70
2023-02-27T13:54:15.229Z,15.20
2023-02-27T13:56:47.047Z,20.00
2023-02-27T13:59:34.260Z,7.10
2023-02-27T14:02:05.100Z,5.70
2023-02-27T14:04:36.989Z,5.60
2023-02-27T14:07:10.901Z,9.50
2023-02-27T14:09:42.667Z,10.80
2023-02-27T14:12:43.729Z,6.20
2023-02-27T14:15:22.515Z,12.00
2023-02-27T14:18:09.575Z,13.20
2023-02-27T14:23:17.003Z,7.20
2023-02-27T14:25:54.803Z,7.20
2023-02-27T14:28:51.789Z,9.40
2023-02-27T14:31:31.216Z,7.80
2023-02-27T14:34:06.040Z,9.00
2023-02-27T14:36:58.327Z,7.40
2023-02-27T14:39:35.586Z,7.10
2023-02-27T14:42:24.133Z,8.50
2023-02-27T14:47:27.190Z,9.40
2023-02-27T14:49:56.328Z,8.20
2023-02-27T14:52:29.837Z,23.70
2023-02-27T14:55:22.004Z,9.80
2023-02-27T14:57:55.193Z,11.50
2023-02-27T15:00:58.516Z,10.20
2023-02-27T15:03:38.978Z,15.60
2023-02-27T15:06:17.772Z,19.00
2023-02-27T15:08:52.386Z,24.80
2023-02-27T15:11:23.023Z,7.40
2023-02-27T15:14:01.528Z,11.40
2023-02-27T15:16:40.966Z,20.20
2023-02-27T15:19:17.645Z,10.60
2023-02-27T15:21:51.458Z,16.60
2023-02-27T15:24:40.582Z,10.00
2023-02-27T15:27:23.429Z,9.20
2023-02-27T15:29:57.178Z,11.10
2023-02-27T15:32:33.452Z,11.90
2023-02-27T15:35:05.500Z,13.80
2023-02-27T15:37:34.407Z,35.70
2023-02-27T15:40:06.027Z,19.70
2023-02-27T15:42:37.658Z,13.50
2023-02-27T15:45:07.720Z,14.80
2023-02-27T15:47:36.088Z,11.20
2023-02-27T15:50:12.416Z,13.60
2023-02-27T15:52:55.318Z,19.10
2023-02-27T15:55:31.252Z,13.70
2023-02-27T15:58:03.346Z,7.30
2023-02-27T16:00:35.283Z,8.80
2023-02-27T16:03:07.142Z,9.70
2023-02-27T16:05:41.638Z,8.90
2023-02-27T16:08:18.711Z,10.30
2023-02-27T16:10:47.782Z,7.20
2023-02-27T16:13:25.197Z,6.10
2023-02-27T16:16:26.696Z,9.60
2023-02-27T16:18:58.443Z,15.30
2023-02-27T16:21:31.183Z,19.40
2023-02-27T16:24:19.223Z,9.10
2023-02-27T16:26:53.162Z,6.10
2023-02-27T16:29:33.918Z,5.40
2023-02-27T16:32:03.860Z,5.80
2023-02-27T16:34:45.547Z,8.80
2023-02-27T16:37:27.197Z,16.40
2023-02-27T16:39:55.250Z,13.60
2023-02-27T16:42:23.359Z,18.70
2023-02-27T16:44:51.614Z,18.00
2023-02-27T16:47:19.672Z,20.60
2023-02-27T16:49:49.637Z,25.10
2023-02-27T16:52:18.012Z,17.00
2023-02-27T16:54:46.281Z,13.70
2023-02-27T16:57:14.460Z,17.10
2023-02-27T16:59:44.143Z,25.00
2023-02-27T17:02:15.039Z,25.10
2023-02-27T17:04:44.516Z,17.60
2023-02-27T17:07:18.859Z,14.70
2023-02-27T17:09:47.717Z,16.60
2023-02-27T17:12:15.795Z,13.90
2023-02-27T17:14:44.053Z,15.80
2023-02-27T17:17:12.261Z,11.60
2023-02-27T17:19:40.806Z,10.90
2023-02-27T17:22:08.896Z,15.30
2023-02-27T17:24:38.530Z,21.40
2023-02-27T17:27:06.894Z,18.70
2023-02-27T17:29:36.784Z,17.50
2023-02-27T17:32:05.226Z,16.00
2023-02-27T17:34:33.403Z,14.80
2023-02-27T17:37:01.657Z,21.10
2023-02-27T17:39:29.789Z,16.10
2023-02-27T17:41:58.292Z,12.70
2023-02-27T17:44:27.100Z,12.90
2023-02-27T17:49:23.317Z,7.30
2023-02-27T17:51:51.637Z,9.50
2023-02-27T17:54:19.752Z,12.70
2023-02-27T17:56:47.777Z,11.70
2023-02-27T17:59:16.047Z,14.30
2023-02-27T18:01:44.087Z,15.60
2023-02-27T18:04:12.963Z,16.40
2023-02-27T18:09:09.061Z,11.60
2023-02-27T18:11:37.621Z,11.00
2023-02-27T18:14:06.221Z,9.00
2023-02-27T18:16:35.698Z,12.60
2023-02-27T18:19:06.125Z,11.00
2023-02-27T18:21:35.177Z,14.80
2023-02-27T18:24:03.839Z,15.50
2023-02-27T18:26:33.258Z,14.30
2023-02-27T18:29:05.333Z,11.70
2023-02-27T18:31:39.863Z,12.00
2023-02-27T18:34:08.479Z,15.20
2023-02-27T18:36:37.443Z,14.10
2023-02-27T18:39:06.314Z,15.10
2023-02-27T18:46:32.768Z,13.30
2023-02-27T18:49:01.557Z,15.00
2023-02-27T18:51:30.115Z,17.60
2023-02-27T18:54:00.830Z,14.80
2023-02-27T18:56:31.030Z,13.00
2023-02-27T18:59:05.088Z,13.00
2023-02-27T19:01:36.707Z,15.20
2023-02-27T19:04:07.355Z,13.60
2023-02-27T19:06:41.186Z,15.00
2023-02-27T19:09:13.041Z,13.50
2023-02-27T19:11:41.182Z,15.50
2023-02-27T19:14:13.490Z,12.30
2023-02-27T19:16:41.843Z,12.70
2023-02-27T19:19:10.953Z,14.20
2023-02-27T19:21:41.012Z,7.20
2023-02-27T19:24:12.154Z,6.70
2023-02-27T19:26:42.648Z,13.60
2023-02-27T19:29:10.738Z,12.10
2023-02-27T19:31:38.891Z,8.20
2023-02-27T19:34:07.090Z,16.90
2023-02-27T19:36:35.137Z,15.80
2023-02-27T19:39:04.235Z,15.10
2023-02-27T19:41:33.592Z,18.80
2023-02-27T19:44:02.133Z,18.00
2023-02-27T19:46:33.758Z,17.60
2023-02-27T19:49:04.921Z,17.70
2023-02-27T19:51:33.218Z,15.70
2023-02-27T19:54:01.288Z,18.40
2023-02-27T19:56:30.027Z,18.50
2023-02-27T19:59:00.948Z,15.30
2023-02-27T20:01:38.950Z,13.50
2023-02-27T20:04:07.959Z,14.60
2023-02-27T20:06:42.148Z,6.10
2023-02-27T20:09:14.630Z,5.10
2023-02-27T20:11:44.722Z,4.40
2023-02-27T20:14:14.433Z,6.40
2023-02-27T20:16:42.603Z,6.50
2023-02-27T20:19:14.050Z,5.80
2023-02-27T20:21:43.239Z,10.90
2023-02-27T20:24:11.670Z,7.00
2023-02-27T20:26:50.810Z,6.00
2023-02-27T20:29:22.218Z,9.00
2023-02-27T20:31:52.760Z,11.60
2023-02-27T20:34:26.324Z,11.80
2023-02-27T20:36:55.858Z,9.90
2023-02-27T20:39:24.872Z,12.00
2023-02-27T20:41:52.938Z,9.50
2023-02-27T20:44:21.077Z,11.40
2023-02-27T20:46:49.634Z,11.60
2023-02-27T20:51:46.666Z,14.40
2023-02-27T20:56:52.583Z,10.40
2023-02-27T20:59:24.755Z,12.50
2023-02-27T21:01:53.837Z,9.70
2023-02-27T21:04:43.371Z,8.10
2023-02-27T21:07:14.369Z,5.50
2023-02-27T21:09:42.945Z,5.30
2023-02-27T21:12:11.896Z,6.00
2023-02-27T21:17:08.062Z,6.30
2023-02-27T21:19:38.107Z,5.40
2023-02-27T21:22:06.311Z,6.50
2023-02-27T21:24:34.342Z,5.80
2023-02-27T21:27:02.383Z,6.20
2023-02-27T21:29:30.416Z,7.10
2023-02-27T21:31:59.021Z,5.30
2023-02-27T21:34:28.359Z,9.60
2023-02-27T21:36:56.593Z,7.30
2023-02-27T21:39:28.516Z,6.40
2023-02-27T21:41:56.929Z,12.40
2023-02-27T21:44:25.395Z,13.70
2023-02-27T21:46:54.337Z,12.20
2023-02-27T21:49:25.702Z,12.10
2023-02-27T21:51:54.672Z,10.80
2023-02-27T21:54:23.358Z,9.50
2023-02-27T21:56:51.598Z,11.10
2023-02-27T21:59:21.700Z,11.00
2023-02-27T22:01:49.947Z,8.90
2023-02-27T22:04:19.857Z,9.30
2023-02-27T22:06:49.980Z,7.80
2023-02-27T22:09:19.427Z,8.30
2023-02-27T22:11:48.533Z,6.40
2023-02-27T22:14:16.836Z,6.60
2023-02-27T22:16:45.004Z,5.90
2023-02-27T22:19:22.165Z,6.00
2023-02-27T22:21:50.258Z,6.90
2023-02-27T22:24:18.582Z,6.90
2023-02-27T22:26:47.914Z,6.90
2023-02-27T22:29:17.240Z,8.80
2023-02-27T22:31:46.122Z,9.10
2023-02-27T22:34:18.599Z,8.60
2023-02-27T22:36:52.734Z,7.60
2023-02-27T22:39:21.516Z,5.90
2023-02-27T22:41:49.738Z,5.50
2023-02-27T22:44:19.588Z,8.40
2023-02-27T22:46:49.745Z,8.40
2023-02-27T22:49:20.701Z,8.80
2023-02-27T22:51:51.264Z,7.80
2023-02-27T22:54:22.920Z,7.20
2023-02-27T22:56:53.094Z,6.90
2023-02-27T22:59:21.635Z,6.30
2023-02-27T23:01:50.532Z,6.60
2023-02-27T23:04:18.901Z,5.70
2023-02-27T23:06:47.162Z,6.60
2023-02-27T23:09:18.421Z,7.00
2023-02-27T23:11:46.602Z,6.70
2023-02-27T23:14:15.314Z,7.30
2023-02-27T23:19:17.799Z,7.00
2023-02-27T23:21:45.955Z,6.10
2023-02-27T23:24:17.560Z,8.30
2023-02-27T23:26:48.827Z,10.70
2023-02-27T23:29:17.252Z,7.40
2023-02-27T23:31:45.810Z,8.50
2023-02-27T23:34:14.098Z,6.40
2023-02-27T23:36:42.240Z,7.20
2023-02-27T23:39:10.443Z,6.20
2023-02-27T23:41:38.580Z,8.00
2023-02-27T23:44:25.516Z,7.40
2023-02-27T23:46:53.595Z,7.90
2023-02-27T23:49:21.783Z,6.80
2023-02-27T23:51:50.015Z,6.90
2023-02-27T23:54:18.355Z,7.70
2023-02-27T23:56:48.397Z,9.50
2023-02-27T23:59:16.401Z,8.60
